createdAt,value
2022-07-31T00:00:12.149Z,22.75
2022-07-31T00:02:41.340Z,16.73
2022-07-31T00:05:07.797Z,16.73
2022-07-31T00:07:34.155Z,16.30
2022-07-31T00:10:00.488Z,16.85
2022-07-31T00:12:26.857Z,18.20
2022-07-31T00:14:53.205Z,16.02
2022-07-31T00:17:20.102Z,14.73
2022-07-31T00:19:46.993Z,15.90
2022-07-31T00:22:13.537Z,12.30
2022-07-31T00:24:40.670Z,15.52
2022-07-31T00:27:07.389Z,15.80
2022-07-31T00:29:33.746Z,13.13
2022-07-31T00:32:00.109Z,16.58
2022-07-31T00:34:26.480Z,11.10
2022-07-31T00:36:52.811Z,14.18
2022-07-31T00:39:19.531Z,11.60
2022-07-31T00:41:46.768Z,16.13
2022-07-31T00:44:13.696Z,14.18
2022-07-31T00:46:40.754Z,13.50
2022-07-31T00:49:11.724Z,18.00
2022-07-31T00:51:39.592Z,12.55
2022-07-31T00:54:06.774Z,14.20
2022-07-31T00:56:33.194Z,12.15
2022-07-31T00:58:59.953Z,13.57
2022-07-31T01:01:26.501Z,13.30
2022-07-31T01:03:53.520Z,12.15
2022-07-31T01:06:19.957Z,10.13
2022-07-31T01:08:46.462Z,9.77
2022-07-31T01:11:15.638Z,12.43
2022-07-31T01:13:48.368Z,12.38
2022-07-31T01:16:15.339Z,13.02
2022-07-31T01:18:42.231Z,13.38
2022-07-31T01:21:11.021Z,13.40
2022-07-31T01:23:51.066Z,13.65
2022-07-31T01:26:49.382Z,12.10
2022-07-31T01:29:16.609Z,13.68
2022-07-31T01:31:49.615Z,11.77
2022-07-31T01:34:22.525Z,11.93
2022-07-31T01:36:55.541Z,9.45
2022-07-31T01:39:22.151Z,13.77
2022-07-31T01:41:49.831Z,14.70
2022-07-31T01:44:17.767Z,12.90
2022-07-31T01:46:45.610Z,8.60
2022-07-31T01:49:14.296Z,8.18
2022-07-31T01:51:42.394Z,9.63
2022-07-31T01:54:10.260Z,10.25
2022-07-31T01:56:37.686Z,10.65
2022-07-31T01:59:04.472Z,9.27
2022-07-31T02:01:48.106Z,9.75
2022-07-31T02:04:18.353Z,10.70
2022-07-31T02:06:46.579Z,10.02
2022-07-31T02:09:13.076Z,9.85
2022-07-31T02:11:53.226Z,12.57
2022-07-31T02:14:22.383Z,12.95
2022-07-31T02:16:49.985Z,12.05
2022-07-31T02:19:22.476Z,15.13
2022-07-31T02:21:49.919Z,11.00
2022-07-31T02:24:17.348Z,11.10
2022-07-31T02:26:44.139Z,10.77
2022-07-31T02:29:19.820Z,13.70
2022-07-31T02:31:48.308Z,8.65
2022-07-31T02:34:30.244Z,9.93
2022-07-31T02:36:57.209Z,12.40
2022-07-31T02:39:28.732Z,11.98
2022-07-31T02:41:59.296Z,10.48
2022-07-31T02:44:27.184Z,12.73
2022-07-31T02:46:54.492Z,12.32
2022-07-31T02:49:21.369Z,12.88
2022-07-31T02:51:47.909Z,10.90
2022-07-31T02:54:16.036Z,11.30
2022-07-31T02:56:43.106Z,11.73
2022-07-31T02:59:09.446Z,9.20
2022-07-31T03:01:54.380Z,10.32
2022-07-31T03:04:21.060Z,12.90
2022-07-31T03:06:48.578Z,10.13
2022-07-31T03:09:15.395Z,11.23
2022-07-31T03:11:42.967Z,10.23
2022-07-31T03:14:11.740Z,8.65
2022-07-31T03:16:39.635Z,9.20
2022-07-31T03:19:08.331Z,11.25
2022-07-31T03:21:35.366Z,12.98
2022-07-31T03:24:03.513Z,13.05
2022-07-31T03:26:32.571Z,9.07
2022-07-31T03:29:00.468Z,11.65
2022-07-31T03:31:27.099Z,9.02
2022-07-31T03:33:53.510Z,10.68
2022-07-31T03:36:19.845Z,9.85
2022-07-31T03:38:50.463Z,13.13
2022-07-31T03:41:38.032Z,10.30
2022-07-31T03:44:04.815Z,10.45
2022-07-31T03:46:31.991Z,8.82
2022-07-31T03:48:58.515Z,8.65
2022-07-31T03:51:26.616Z,13.05
2022-07-31T03:53:53.219Z,11.35
2022-07-31T03:56:48.506Z,11.90
2022-07-31T03:59:16.656Z,10.15
2022-07-31T04:01:57.437Z,10.20
2022-07-31T04:04:38.309Z,9.75
2022-07-31T04:07:05.192Z,8.30
2022-07-31T04:09:31.712Z,8.55
2022-07-31T04:11:58.916Z,7.20
2022-07-31T04:14:25.837Z,8.63
2022-07-31T04:16:52.239Z,11.23
2022-07-31T04:19:18.602Z,8.23
2022-07-31T04:21:45.024Z,7.90
2022-07-31T04:24:13.665Z,10.95
2022-07-31T04:27:08.103Z,9.80
2022-07-31T04:29:41.595Z,11.65
2022-07-31T04:32:08.321Z,9.65
2022-07-31T04:34:40.612Z,9.93
2022-07-31T04:37:07.001Z,11.10
2022-07-31T04:39:33.404Z,11.05
2022-07-31T04:42:01.018Z,10.73
2022-07-31T04:44:28.664Z,10.18
2022-07-31T04:47:04.203Z,9.18
2022-07-31T04:49:33.947Z,10.57
2022-07-31T04:52:02.482Z,9.90
2022-07-31T04:54:29.780Z,9.07
2022-07-31T04:56:57.507Z,9.63
2022-07-31T04:59:24.568Z,8.57
2022-07-31T05:02:12.329Z,8.60
2022-07-31T05:04:39.202Z,7.55
2022-07-31T05:07:05.918Z,7.78
2022-07-31T05:09:36.529Z,7.40
2022-07-31T05:12:05.362Z,6.47
2022-07-31T05:14:32.145Z,7.45
2022-07-31T05:16:58.920Z,7.72
2022-07-31T05:19:30.050Z,6.60
2022-07-31T05:22:15.020Z,7.10
2022-07-31T05:25:04.756Z,6.30
2022-07-31T05:27:32.195Z,7.20
2022-07-31T05:29:58.601Z,6.32
2022-07-31T05:32:24.939Z,7.18
2022-07-31T05:34:51.672Z,6.10
2022-07-31T05:37:18.087Z,6.40
2022-07-31T05:39:44.537Z,5.80
2022-07-31T05:42:29.199Z,4.95
2022-07-31T05:45:22.536Z,5.05
2022-07-31T05:47:48.923Z,4.22
2022-07-31T05:50:15.339Z,3.75
2022-07-31T05:52:42.660Z,3.80
2022-07-31T05:55:27.860Z,3.60
2022-07-31T05:58:19.657Z,3.42
2022-07-31T06:00:47.112Z,5.63
2022-07-31T06:03:13.537Z,4.57
2022-07-31T06:05:56.263Z,4.72
2022-07-31T06:08:23.117Z,4.00
2022-07-31T06:10:50.187Z,3.20
2022-07-31T06:13:16.729Z,3.17
2022-07-31T06:15:49.454Z,3.72
2022-07-31T06:18:16.117Z,3.63
2022-07-31T06:20:42.726Z,3.28
2022-07-31T06:23:19.874Z,2.75
2022-07-31T06:25:58.708Z,3.53
2022-07-31T06:28:43.207Z,3.38
2022-07-31T06:31:21.562Z,4.82
2022-07-31T06:33:50.006Z,4.70
2022-07-31T06:36:19.373Z,3.88
2022-07-31T06:38:54.329Z,3.20
2022-07-31T06:41:49.468Z,3.95
2022-07-31T06:44:27.952Z,5.35
2022-07-31T06:47:14.288Z,2.90
2022-07-31T06:49:55.068Z,3.67
2022-07-31T06:52:25.142Z,2.95
2022-07-31T06:54:52.338Z,2.88
2022-07-31T06:57:18.859Z,3.70
2022-07-31T06:59:45.285Z,2.60
2022-07-31T07:02:12.101Z,2.97
2022-07-31T07:04:56.292Z,4.15
2022-07-31T07:07:31.479Z,2.78
2022-07-31T07:09:59.187Z,2.75
2022-07-31T07:12:48.445Z,2.78
2022-07-31T07:15:14.911Z,3.28
2022-07-31T07:17:42.360Z,2.60
2022-07-31T07:20:14.497Z,3.88
2022-07-31T07:22:40.909Z,2.85
2022-07-31T07:25:08.163Z,4.32
2022-07-31T07:27:34.703Z,2.40
2022-07-31T07:30:02.293Z,3.55
2022-07-31T07:32:29.027Z,2.78
2022-07-31T07:34:59.382Z,3.35
2022-07-31T07:37:49.154Z,2.63
2022-07-31T07:40:16.914Z,2.50
2022-07-31T07:42:43.721Z,3.55
2022-07-31T07:45:10.329Z,5.50
2022-07-31T07:47:53.919Z,3.67
2022-07-31T07:50:26.951Z,2.72
2022-07-31T07:53:14.395Z,6.32
2022-07-31T07:56:06.576Z,3.42
2022-07-31T07:59:04.992Z,2.70
2022-07-31T08:02:00.741Z,2.53
2022-07-31T08:04:29.772Z,2.20
2022-07-31T08:06:56.209Z,3.97
2022-07-31T08:09:25.723Z,2.50
2022-07-31T08:12:10.908Z,3.15
2022-07-31T08:15:09.761Z,3.80
2022-07-31T08:18:06.203Z,2.10
2022-07-31T08:20:32.609Z,3.38
2022-07-31T08:22:59.030Z,2.40
2022-07-31T08:25:25.399Z,3.70
2022-07-31T08:27:58.402Z,3.60
2022-07-31T08:30:30.778Z,2.72
2022-07-31T08:32:57.931Z,4.45
2022-07-31T08:35:37.232Z,2.58
2022-07-31T08:38:05.058Z,2.50
2022-07-31T08:40:43.817Z,2.40
2022-07-31T08:43:31.031Z,2.78
2022-07-31T08:45:59.933Z,2.35
2022-07-31T08:48:30.874Z,2.67
2022-07-31T08:50:58.382Z,2.70
2022-07-31T08:53:48.706Z,2.85
2022-07-31T08:56:17.592Z,2.83
2022-07-31T08:58:44.000Z,2.92
2022-07-31T09:01:14.110Z,2.30
2022-07-31T09:03:41.136Z,4.22
2022-07-31T09:06:11.048Z,4.45
2022-07-31T09:08:38.152Z,2.28
2022-07-31T09:11:08.619Z,6.15
2022-07-31T09:14:02.143Z,2.85
2022-07-31T09:16:50.172Z,4.50
2022-07-31T09:19:51.655Z,2.20
2022-07-31T09:22:23.384Z,2.92
2022-07-31T09:24:50.376Z,2.78
2022-07-31T09:27:17.827Z,2.30
2022-07-31T09:29:45.404Z,3.85
2022-07-31T09:32:24.207Z,3.53
2022-07-31T09:35:12.672Z,2.20
2022-07-31T09:37:40.145Z,3.40
2022-07-31T09:40:33.945Z,3.22
2022-07-31T09:43:36.006Z,3.05
2022-07-31T09:46:18.181Z,2.15
2022-07-31T09:48:49.879Z,2.78
2022-07-31T09:51:19.072Z,2.72
2022-07-31T09:53:47.607Z,9.00
2022-07-31T09:56:33.061Z,2.35
2022-07-31T09:59:00.192Z,1.83
2022-07-31T10:01:26.942Z,3.67
2022-07-31T10:03:55.559Z,4.55
2022-07-31T10:06:22.801Z,2.22
2022-07-31T10:08:49.552Z,3.08
2022-07-31T10:11:42.744Z,1.67
2022-07-31T10:14:23.981Z,1.98
2022-07-31T10:16:54.704Z,6.22
2022-07-31T10:19:55.263Z,1.88
2022-07-31T10:22:48.487Z,1.70
2022-07-31T10:25:26.192Z,3.60
2022-07-31T10:27:54.132Z,1.80
2022-07-31T10:30:23.749Z,2.53
2022-07-31T10:32:55.121Z,1.55
2022-07-31T10:35:27.794Z,2.95
2022-07-31T10:38:15.501Z,1.95
2022-07-31T10:40:58.092Z,4.65
2022-07-31T10:43:27.671Z,1.88
2022-07-31T10:46:05.968Z,2.75
2022-07-31T10:48:53.279Z,3.55
2022-07-31T10:51:47.800Z,2.28
2022-07-31T10:55:01.009Z,2.60
2022-07-31T10:57:55.972Z,2.75
2022-07-31T11:00:32.931Z,2.28
2022-07-31T11:03:21.484Z,1.23
2022-07-31T11:06:26.991Z,3.22
2022-07-31T11:09:09.042Z,3.08
2022-07-31T11:12:03.604Z,1.60
2022-07-31T11:14:47.586Z,2.60
2022-07-31T11:18:21.079Z,1.85
2022-07-31T11:20:31.483Z,1.90
2022-07-31T11:22:58.235Z,1.65
2022-07-31T11:25:25.683Z,2.08
2022-07-31T11:27:52.278Z,2.75
2022-07-31T11:30:18.685Z,2.60
2022-07-31T11:32:49.572Z,1.50
2022-07-31T11:35:25.951Z,1.90
2022-07-31T11:37:57.821Z,1.35
2022-07-31T11:40:27.738Z,3.05
2022-07-31T11:43:23.114Z,3.45
2022-07-31T11:45:51.550Z,2.90
2022-07-31T11:48:19.482Z,1.30
2022-07-31T11:50:46.248Z,1.98
2022-07-31T11:53:12.706Z,2.45
2022-07-31T11:55:44.975Z,1.50
2022-07-31T11:58:11.395Z,4.47
2022-07-31T12:00:37.980Z,2.22
2022-07-31T12:03:04.431Z,1.70
2022-07-31T12:05:36.169Z,3.20
2022-07-31T12:08:05.064Z,1.10
2022-07-31T12:10:31.531Z,1.50
2022-07-31T12:12:57.922Z,1.60
2022-07-31T12:15:24.276Z,2.45
2022-07-31T12:17:59.619Z,2.83
2022-07-31T12:20:35.307Z,2.58
2022-07-31T12:23:03.256Z,1.50
2022-07-31T12:25:39.074Z,1.42
2022-07-31T12:28:07.221Z,1.77
2022-07-31T12:30:33.668Z,1.70
2022-07-31T12:33:10.207Z,3.50
2022-07-31T12:35:55.249Z,1.60
2022-07-31T12:38:41.063Z,1.80
2022-07-31T12:41:10.838Z,3.58
2022-07-31T12:43:37.446Z,3.95
2022-07-31T12:46:06.508Z,1.80
2022-07-31T12:48:38.596Z,3.13
2022-07-31T12:51:06.577Z,2.10
2022-07-31T12:53:32.941Z,2.15
2022-07-31T12:55:59.309Z,4.28
2022-07-31T12:58:25.694Z,1.52
2022-07-31T13:00:52.147Z,3.58
2022-07-31T13:03:18.481Z,1.92
2022-07-31T13:05:47.162Z,1.20
2022-07-31T13:08:15.515Z,2.72
2022-07-31T13:10:41.967Z,2.08
2022-07-31T13:13:08.331Z,2.30
2022-07-31T13:15:34.667Z,3.65
2022-07-31T13:18:05.110Z,1.65
2022-07-31T13:20:31.512Z,1.88
2022-07-31T13:22:59.284Z,1.60
2022-07-31T13:25:26.644Z,1.60
2022-07-31T13:27:53.053Z,2.95
2022-07-31T13:30:19.424Z,2.65
2022-07-31T13:32:45.757Z,1.88
2022-07-31T13:35:26.660Z,1.95
2022-07-31T13:37:54.859Z,2.55
2022-07-31T13:40:41.343Z,1.27
2022-07-31T13:43:08.016Z,1.52
2022-07-31T13:45:34.449Z,2.00
2022-07-31T13:48:03.343Z,1.73
2022-07-31T13:50:33.344Z,1.33
2022-07-31T13:52:59.763Z,2.67
2022-07-31T13:55:26.375Z,1.50
2022-07-31T13:57:52.704Z,1.90
2022-07-31T14:00:23.396Z,1.63
2022-07-31T14:02:50.104Z,2.00
2022-07-31T14:05:16.690Z,2.75
2022-07-31T14:07:48.239Z,2.40
2022-07-31T14:10:20.616Z,2.13
2022-07-31T14:12:47.611Z,1.92
2022-07-31T14:15:14.254Z,2.30
2022-07-31T14:17:40.620Z,3.15
2022-07-31T14:20:07.243Z,2.47
2022-07-31T14:22:33.611Z,1.50
2022-07-31T14:25:00.148Z,1.13
2022-07-31T14:27:26.552Z,1.20
2022-07-31T14:29:52.945Z,5.70
2022-07-31T14:32:21.733Z,1.48
2022-07-31T14:34:48.821Z,1.15
2022-07-31T14:37:15.190Z,1.40
2022-07-31T14:39:42.827Z,1.25
2022-07-31T14:42:09.593Z,1.50
2022-07-31T14:44:36.832Z,1.65
2022-07-31T14:47:03.622Z,2.10
2022-07-31T14:50:09.922Z,1.70
2022-07-31T14:52:17.524Z,3.55
2022-07-31T14:54:43.860Z,1.67
2022-07-31T14:57:10.785Z,2.55
2022-07-31T14:59:37.111Z,1.83
2022-07-31T15:02:03.471Z,1.85
2022-07-31T15:04:29.814Z,2.25
2022-07-31T15:07:18.663Z,1.45
2022-07-31T15:09:42.505Z,2.13
2022-07-31T15:12:09.041Z,1.15
2022-07-31T15:14:35.397Z,1.27
2022-07-31T15:17:01.893Z,2.33
2022-07-31T15:19:28.397Z,1.90
2022-07-31T15:22:10.970Z,1.90
2022-07-31T15:24:47.503Z,1.35
2022-07-31T15:27:15.845Z,1.73
2022-07-31T15:30:00.142Z,1.20
2022-07-31T15:32:29.403Z,2.45
2022-07-31T15:34:55.782Z,1.80
2022-07-31T15:37:22.874Z,1.40
2022-07-31T15:40:01.488Z,2.42
2022-07-31T15:42:29.724Z,2.10
2022-07-31T15:44:56.062Z,1.30
2022-07-31T15:47:22.408Z,2.15
2022-07-31T15:49:48.830Z,2.17
2022-07-31T15:52:19.296Z,1.92
2022-07-31T15:54:46.386Z,4.63
2022-07-31T15:57:12.785Z,1.83
2022-07-31T15:59:39.107Z,3.05
2022-07-31T16:02:06.490Z,1.33
2022-07-31T16:04:32.920Z,1.73
2022-07-31T16:07:00.402Z,1.40
2022-07-31T16:10:00.846Z,1.75
2022-07-31T16:12:30.498Z,2.25
2022-07-31T16:14:56.948Z,1.30
2022-07-31T16:17:23.333Z,1.48
2022-07-31T16:19:50.018Z,1.20
2022-07-31T16:22:16.598Z,1.45
2022-07-31T16:24:45.118Z,2.90
2022-07-31T16:27:11.479Z,4.72
2022-07-31T16:29:59.682Z,1.75
2022-07-31T16:32:24.228Z,1.40
2022-07-31T16:34:54.047Z,1.58
2022-07-31T16:37:22.445Z,1.00
2022-07-31T16:40:09.276Z,3.35
2022-07-31T16:42:55.985Z,1.70
2022-07-31T16:45:22.340Z,2.85
2022-07-31T16:47:51.212Z,1.35
2022-07-31T16:50:18.038Z,1.33
2022-07-31T16:52:44.397Z,1.73
2022-07-31T16:55:10.732Z,1.40
2022-07-31T16:57:37.130Z,1.73
2022-07-31T17:00:05.990Z,2.63
2022-07-31T17:02:32.340Z,1.42
2022-07-31T17:04:58.678Z,2.40
2022-07-31T17:07:25.024Z,1.02
2022-07-31T17:09:51.696Z,1.35
2022-07-31T17:12:18.187Z,2.15
2022-07-31T17:14:44.547Z,1.33
2022-07-31T17:17:11.566Z,1.25
2022-07-31T17:19:45.587Z,1.60
2022-07-31T17:22:17.480Z,2.13
2022-07-31T17:24:50.299Z,1.77
2022-07-31T17:27:17.389Z,2.40
2022-07-31T17:29:43.732Z,1.15
2022-07-31T17:32:11.299Z,2.15
2022-07-31T17:34:38.461Z,2.17
2022-07-31T17:37:05.276Z,0.90
2022-07-31T17:39:31.972Z,1.35
2022-07-31T17:41:58.740Z,3.75
2022-07-31T17:44:25.101Z,1.80
2022-07-31T17:46:52.158Z,2.60
2022-07-31T17:49:19.678Z,1.70
2022-07-31T17:51:58.672Z,2.17
2022-07-31T17:54:27.556Z,2.95
2022-07-31T17:56:54.081Z,1.50
2022-07-31T17:59:20.485Z,1.58
2022-07-31T18:01:51.489Z,2.42
2022-07-31T18:04:18.958Z,3.70
2022-07-31T18:06:45.364Z,1.30
2022-07-31T18:09:11.700Z,1.98
2022-07-31T18:11:38.031Z,2.45
2022-07-31T18:14:05.099Z,1.40
2022-07-31T18:16:31.654Z,3.80
2022-07-31T18:18:58.059Z,3.20
2022-07-31T18:21:24.414Z,1.77
2022-07-31T18:23:50.757Z,1.67
2022-07-31T18:26:17.094Z,2.65
2022-07-31T18:28:43.468Z,2.38
2022-07-31T18:31:12.835Z,6.03
2022-07-31T18:33:56.252Z,2.13
2022-07-31T18:36:22.623Z,2.65
2022-07-31T18:38:49.017Z,1.98
2022-07-31T18:41:15.393Z,3.17
2022-07-31T18:43:41.772Z,6.03
2022-07-31T18:46:08.164Z,2.90
2022-07-31T18:48:34.525Z,2.22
2022-07-31T18:51:04.890Z,5.18
2022-07-31T18:53:31.953Z,2.42
2022-07-31T18:55:58.302Z,2.97
2022-07-31T18:58:24.705Z,2.13
2022-07-31T19:00:54.946Z,2.40
2022-07-31T19:03:21.953Z,2.28
2022-07-31T19:05:50.011Z,2.25
2022-07-31T19:08:16.400Z,2.20
2022-07-31T19:10:42.729Z,2.80
2022-07-31T19:13:09.084Z,4.55
2022-07-31T19:15:45.723Z,3.28
2022-07-31T19:18:12.064Z,2.90
2022-07-31T19:20:58.974Z,3.70
2022-07-31T19:23:26.892Z,2.88
2022-07-31T19:26:03.095Z,2.67
2022-07-31T19:28:31.271Z,6.85
2022-07-31T19:30:57.673Z,4.35
2022-07-31T19:33:24.722Z,3.92
2022-07-31T19:35:55.450Z,3.35
2022-07-31T19:38:27.220Z,2.95
2022-07-31T19:40:53.678Z,2.72
2022-07-31T19:43:20.267Z,6.72
2022-07-31T19:45:59.797Z,2.33
2022-07-31T19:48:33.915Z,3.28
2022-07-31T19:51:00.320Z,4.40
2022-07-31T19:53:26.647Z,2.55
2022-07-31T19:55:53.049Z,2.72
2022-07-31T19:58:21.133Z,3.15
2022-07-31T20:00:47.650Z,2.65
2022-07-31T20:03:14.103Z,2.72
2022-07-31T20:05:40.991Z,2.63
2022-07-31T20:08:07.611Z,2.20
2022-07-31T20:10:33.992Z,2.38
2022-07-31T20:13:00.359Z,2.80
2022-07-31T20:15:26.727Z,5.57
2022-07-31T20:18:13.113Z,2.60
2022-07-31T20:21:01.555Z,3.33
2022-07-31T20:23:28.366Z,3.28
2022-07-31T20:25:54.788Z,2.78
2022-07-31T20:28:21.187Z,2.60
2022-07-31T20:30:47.590Z,2.63
2022-07-31T20:33:13.947Z,4.05
2022-07-31T20:35:48.889Z,2.97
2022-07-31T20:38:25.128Z,4.43
2022-07-31T20:40:53.577Z,5.13
2022-07-31T20:43:24.404Z,3.58
2022-07-31T20:45:50.809Z,2.92
2022-07-31T20:48:22.464Z,2.33
2022-07-31T20:50:48.854Z,3.10
2022-07-31T20:53:15.739Z,2.28
2022-07-31T20:55:46.631Z,2.60
2022-07-31T20:58:13.244Z,2.30
2022-07-31T21:00:40.097Z,2.53
2022-07-31T21:03:06.516Z,2.40
2022-07-31T21:05:32.955Z,2.70
2022-07-31T21:07:59.331Z,2.63
2022-07-31T21:10:28.191Z,2.63
2022-07-31T21:12:55.818Z,3.55
2022-07-31T21:15:41.056Z,4.90
2022-07-31T21:18:08.560Z,2.60
2022-07-31T21:20:51.040Z,3.60
2022-07-31T21:23:23.421Z,3.38
2022-07-31T21:25:50.880Z,3.50
2022-07-31T21:28:17.620Z,3.38
2022-07-31T21:30:44.152Z,2.50
2022-07-31T21:33:10.540Z,3.35
2022-07-31T21:35:39.099Z,2.53
2022-07-31T21:38:06.009Z,2.47
2022-07-31T21:40:38.602Z,3.15
2022-07-31T21:43:05.047Z,2.97
2022-07-31T21:45:46.711Z,2.45
2022-07-31T21:48:18.896Z,2.55
2022-07-31T21:50:46.052Z,3.50
2022-07-31T21:53:13.138Z,2.47
2022-07-31T21:55:39.852Z,4.65
2022-07-31T21:58:06.436Z,3.13
2022-07-31T22:00:34.175Z,2.60
2022-07-31T22:03:00.780Z,3.13
2022-07-31T22:05:45.632Z,2.83
2022-07-31T22:08:12.783Z,2.17
2022-07-31T22:10:39.123Z,2.63
2022-07-31T22:13:05.570Z,4.35
2022-07-31T22:15:58.228Z,2.50
2022-07-31T22:18:18.407Z,2.47
2022-07-31T22:20:45.438Z,2.35
2022-07-31T22:23:12.021Z,3.88
2022-07-31T22:25:40.357Z,2.70
2022-07-31T22:28:06.910Z,6.40
2022-07-31T22:30:33.306Z,3.33
2022-07-31T22:33:00.233Z,2.50
2022-07-31T22:35:27.733Z,3.03
2022-07-31T22:37:54.207Z,2.40
2022-07-31T22:40:21.605Z,2.38
2022-07-31T22:42:57.545Z,3.63
2022-07-31T22:45:24.655Z,3.45
2022-07-31T22:47:51.398Z,2.53
2022-07-31T22:50:18.216Z,2.63
2022-07-31T22:52:44.641Z,3.45
2022-07-31T22:55:11.562Z,3.85
2022-07-31T22:57:40.681Z,2.60
2022-07-31T23:00:08.027Z,2.80
2022-07-31T23:02:34.480Z,4.00
2022-07-31T23:05:00.858Z,3.45
2022-07-31T23:07:27.196Z,3.20
2022-07-31T23:09:53.552Z,3.65
2022-07-31T23:12:19.921Z,2.55
2022-07-31T23:14:46.266Z,3.08
2022-07-31T23:17:22.351Z,3.38
2022-07-31T23:19:50.022Z,3.08
2022-07-31T23:22:20.628Z,2.55
2022-07-31T23:25:01.102Z,4.32
2022-07-31T23:27:27.565Z,2.60
2022-07-31T23:29:53.893Z,3.10
2022-07-31T23:32:20.236Z,3.00
2022-07-31T23:34:46.663Z,2.67
2022-07-31T23:37:13.040Z,3.17
2022-07-31T23:39:39.908Z,2.78
2022-07-31T23:42:24.830Z,3.47
2022-07-31T23:44:51.165Z,2.70
2022-07-31T23:47:17.712Z,2.63
2022-07-31T23:49:44.142Z,2.38
2022-07-31T23:52:10.579Z,3.60
2022-07-31T23:54:37.376Z,3.35
2022-07-31T23:57:03.791Z,2.80
2022-07-31T23:59:30.140Z,2.50
